Penticton, British Columbia

12:25 AM PST on February 06, 2016 (GMT -0800)
Penticton | | Change Station
CLOSE
Current Station
Airport
Location: Penticton,
Elevation: 1129 ft
Nearby Weather Stations

Elev 1129 ft 49.46 °N, 119.61 °W | Updated 25 minutes ago

Mostly Cloudy
Mostly Cloudy
41 °F
Feels Like 30 °F
N
26
Wind Variable Wind from South
Gusts 34 mph

Today is forecast to be nearly the same temperature as yesterday.

Today
High -- | Low -- °F
--% Chance of Precip.
Yesterday
High -- | Low -- °F
Precip. -- in
Pressure 29.98 in
Visibility 15.0 miles
Clouds Few 3000 ft
Mostly Cloudy 8200 ft
Windchill 30 °F
Dew Point 34 °F
Humidity 76%
Rainfall 0.00 in
Snow Depth Not available.
7:23 AM 5:02 PM
Waning Crescent, 7% visible
METAR CYYF 060800Z 19023G30KT 15SM FEW030 BKN082 05/01 A2994 RMK SF2AC3 SLP151
Pressure 29.98 in
Visibility 15.0 miles
Clouds Few 3000 ft
Mostly Cloudy 8200 ft
Windchill 30 °F
Dew Point 34 °F
Humidity 76%
Rainfall 0.00 in
Snow Depth Not available.
7:23 AM 5:02 PM
Waning Crescent, 7% visible
METAR CYYF 060800Z 19023G30KT 15SM FEW030 BKN082 05/01 A2994 RMK SF2AC3 SLP151

10-Day Weather Forecast

Almanac

Astronomy

Feb. 06, 2016 Rise Set
Actual Time
Civil Twilight
Nautical Twilight
Astronomical Twilight
Moon
Length of Visible Light
Length of Day
Tomorrow will be .
, % of the Moon is Illuminated

Today's Extremes

Country Highs Country Lows

Community

WunderPhotos

Upload Photos

1,890,933 photos uploaded!

WunderBlog® & News

Nearby

Air Quality

  Air Quality AQ Index Pollutant
Not available.

Snow Depth

Station Depth Elevation

Earthquake Activity

City Distance Mag. Time & Date
Minimum magnitude displayed is 2.5.

Coastal Water Temperatures

Place Temperature

Stations

Nearby Weather Stations

Station Location Temp. Windchill Dew Point Humidity Wind Precip. Elev Updated Type
                   

Watches & Warnings

There are currently no watches in effect.